sensor_id;sensor_type;location;lat;lon;timestamp;pressure;altitude;pressure_sealevel;temperature;humidity
49813;BME280;35706;52.100;5.056;2023-06-04T00:00:52;102188.38;;;17.33;51.80
49813;BME280;35706;52.100;5.056;2023-06-04T00:01:52;102188.81;;;17.38;51.76
49813;BME280;35706;52.100;5.056;2023-06-04T00:02:52;102187.69;;;17.31;52.10
49813;BME280;35706;52.100;5.056;2023-06-04T00:03:53;102191.75;;;17.35;52.42
49813;BME280;35706;52.100;5.056;2023-06-04T00:04:53;102187.06;;;17.19;52.22
49813;BME280;35706;52.100;5.056;2023-06-04T00:05:54;102189.84;;;17.27;52.26
49813;BME280;35706;52.100;5.056;2023-06-04T00:06:54;102191.34;;;17.30;51.96
49813;BME280;35706;52.100;5.056;2023-06-04T00:07:54;102180.13;;;17.36;51.67
49813;BME280;35706;52.100;5.056;2023-06-04T00:08:54;102188.50;;;17.41;51.74
49813;BME280;35706;52.100;5.056;2023-06-04T00:09:55;102191.81;;;16.88;53.22
49813;BME280;35706;52.100;5.056;2023-06-04T00:10:55;102189.63;;;17.11;52.79
49813;BME280;35706;52.100;5.056;2023-06-04T00:11:56;102187.69;;;17.31;52.19
49813;BME280;35706;52.100;5.056;2023-06-04T00:12:56;102187.06;;;17.19;52.36
49813;BME280;35706;52.100;5.056;2023-06-04T00:13:56;102191.13;;;17.23;52.32
49813;BME280;35706;52.100;5.056;2023-06-04T00:14:57;102190.19;;;17.15;52.72
49813;BME280;35706;52.100;5.056;2023-06-04T00:15:57;102192.47;;;17.00;53.08
49813;BME280;35706;52.100;5.056;2023-06-04T00:16:57;102196.53;;;17.32;52.12
49813;BME280;35706;52.100;5.056;2023-06-04T00:17:58;102190.34;;;17.31;52.29
49813;BME280;35706;52.100;5.056;2023-06-04T00:18:59;102189.88;;;17.45;51.84
49813;BME280;35706;52.100;5.056;2023-06-04T00:19:59;102187.44;;;17.52;51.32
49813;BME280;35706;52.100;5.056;2023-06-04T00:20:59;102194.63;;;17.42;51.72
49813;BME280;35706;52.100;5.056;2023-06-04T00:22:00;102184.22;;;17.30;51.73
49813;BME280;35706;52.100;5.056;2023-06-04T00:23:00;102189.84;;;17.27;51.91
49813;BME280;35706;52.100;5.056;2023-06-04T00:24:01;102189.59;;;17.21;52.28
49813;BME280;35706;52.100;5.056;2023-06-04T00:25:02;102185.63;;;17.25;52.14
49813;BME280;35706;52.100;5.056;2023-06-04T00:26:03;102181.66;;;17.39;52.04
49813;BME280;35706;52.100;5.056;2023-06-04T00:27:03;102181.41;;;17.32;52.28
49813;BME280;35706;52.100;5.056;2023-06-04T00:28:04;102182.56;;;17.29;51.97
49813;BME280;35706;52.100;5.056;2023-06-04T00:29:04;102185.63;;;17.25;52.06
49813;BME280;35706;52.100;5.056;2023-06-04T00:30:05;102183.53;;;17.28;52.14
49813;BME280;35706;52.100;5.056;2023-06-04T00:31:05;102189.53;;;17.30;51.90
49813;BME280;35706;52.100;5.056;2023-06-04T00:32:06;102181.22;;;17.16;52.40
49813;BME280;35706;52.100;5.056;2023-06-04T00:33:07;102186.81;;;17.13;52.33
49813;BME280;35706;52.100;5.056;2023-06-04T00:34:07;102188.81;;;17.01;52.67
49813;BME280;35706;52.100;5.056;2023-06-04T00:35:07;102190.00;;;17.16;52.38
49813;BME280;35706;52.100;5.056;2023-06-04T00:36:09;102188.28;;;17.25;52.19
49813;BME280;35706;52.100;5.056;2023-06-04T00:37:09;102184.06;;;17.04;52.64
49813;BME280;35706;52.100;5.056;2023-06-04T00:38:10;102185.69;;;17.15;52.30
49813;BME280;35706;52.100;5.056;2023-06-04T00:39:10;102180.53;;;17.14;52.25
49813;BME280;35706;52.100;5.056;2023-06-04T00:40:11;102182.59;;;17.20;52.10
49813;BME280;35706;52.100;5.056;2023-06-04T00:41:12;102189.38;;;17.32;51.93
49813;BME280;35706;52.100;5.056;2023-06-04T00:42:12;102183.72;;;17.17;52.47
49813;BME280;35706;52.100;5.056;2023-06-04T00:43:12;102186.19;;;16.91;52.98
49813;BME280;35706;52.100;5.056;2023-06-04T00:44:13;102190.91;;;16.97;52.79
49813;BME280;35706;52.100;5.056;2023-06-04T00:45:14;102192.72;;;17.06;52.84
49813;BME280;35706;52.100;5.056;2023-06-04T00:46:15;102189.13;;;16.98;52.66
49813;BME280;35706;52.100;5.056;2023-06-04T00:47:19;102191.66;;;16.89;53.02
49813;BME280;35706;52.100;5.056;2023-06-04T00:48:21;102192.53;;;16.61;53.30
49813;BME280;35706;52.100;5.056;2023-06-04T00:49:21;102191.69;;;16.60;53.93
49813;BME280;35706;52.100;5.056;2023-06-04T00:50:22;102189.97;;;16.98;52.92
49813;BME280;35706;52.100;5.056;2023-06-04T00:51:22;102191.28;;;17.12;52.84
49813;BME280;35706;52.100;5.056;2023-06-04T00:52:23;102193.00;;;17.03;52.66
49813;BME280;35706;52.100;5.056;2023-06-04T00:53:25;102190.19;;;17.15;52.51
49813;BME280;35706;52.100;5.056;2023-06-04T00:54:25;102184.22;;;16.93;52.80
49813;BME280;35706;52.100;5.056;2023-06-04T00:55:26;102183.41;;;16.93;52.81
49813;BME280;35706;52.100;5.056;2023-06-04T00:56:26;102189.28;;;16.77;53.45
49813;BME280;35706;52.100;5.056;2023-06-04T00:57:26;102186.34;;;16.80;53.29
49813;BME280;35706;52.100;5.056;2023-06-04T00:58:27;102185.50;;;16.79;53.06
49813;BME280;35706;52.100;5.056;2023-06-04T00:59:29;102186.38;;;16.70;53.57
49813;BME280;35706;52.100;5.056;2023-06-04T01:00:32;102190.00;;;16.69;53.81
49813;BME280;35706;52.100;5.056;2023-06-04T01:02:52;102188.34;;;16.58;53.84
49813;BME280;35706;52.100;5.056;2023-06-04T01:03:55;102183.75;;;16.60;53.90
49813;BME280;35706;52.100;5.056;2023-06-04T01:05:26;102183.56;;;16.72;53.36
49813;BME280;35706;52.100;5.056;2023-06-04T01:06:31;102189.88;;;16.71;53.62
49813;BME280;35706;52.100;5.056;2023-06-04T01:07:36;102187.91;;;16.73;53.58
49813;BME280;35706;52.100;5.056;2023-06-04T01:08:39;102200.91;;;16.85;53.37
49813;BME280;35706;52.100;5.056;2023-06-04T01:09:44;102197.56;;;16.64;53.72
49813;BME280;35706;52.100;5.056;2023-06-04T01:10:54;102192.22;;;16.74;53.60
49813;BME280;35706;52.100;5.056;2023-06-04T01:11:56;102187.47;;;16.67;53.50
49813;BME280;35706;52.100;5.056;2023-06-04T01:12:58;102192.84;;;16.58;53.71
49813;BME280;35706;52.100;5.056;2023-06-04T01:13:58;102185.81;;;16.66;53.51
49813;BME280;35706;52.100;5.056;2023-06-04T01:14:58;102189.56;;;16.74;53.25
49813;BME280;35706;52.100;5.056;2023-06-04T01:15:59;102181.78;;;16.72;53.63
49813;BME280;35706;52.100;5.056;2023-06-04T01:17:19;102191.75;;;16.41;54.55
49813;BME280;35706;52.100;5.056;2023-06-04T01:18:27;102191.56;;;16.52;54.20
49813;BME280;35706;52.100;5.056;2023-06-04T01:21:08;102196.88;;;16.52;54.09
49813;BME280;35706;52.100;5.056;2023-06-04T01:22:24;102196.44;;;16.57;54.43
49813;BME280;35706;52.100;5.056;2023-06-04T01:23:41;102191.97;;;16.67;53.89
49813;BME280;35706;52.100;5.056;2023-06-04T01:24:50;102190.88;;;16.60;53.82
49813;BME280;35706;52.100;5.056;2023-06-04T01:25:53;102197.72;;;16.62;53.76
49813;BME280;35706;52.100;5.056;2023-06-04T01:26:54;102193.34;;;16.71;53.65
49813;BME280;35706;52.100;5.056;2023-06-04T01:27:56;102190.44;;;16.55;53.96
49813;BME280;35706;52.100;5.056;2023-06-04T01:28:58;102193.09;;;16.64;53.60
49813;BME280;35706;52.100;5.056;2023-06-04T01:29:59;102196.75;;;16.44;54.06
49813;BME280;35706;52.100;5.056;2023-06-04T01:31:01;102195.34;;;16.49;54.17
49813;BME280;35706;52.100;5.056;2023-06-04T01:32:02;102194.88;;;16.74;53.99
49813;BME280;35706;52.100;5.056;2023-06-04T01:33:03;102192.66;;;16.59;53.79
49813;BME280;35706;52.100;5.056;2023-06-04T01:34:07;102199.09;;;16.66;53.31
49813;BME280;35706;52.100;5.056;2023-06-04T01:35:10;102193.97;;;16.55;53.57
49813;BME280;35706;52.100;5.056;2023-06-04T01:36:11;102204.19;;;16.11;54.83
49813;BME280;35706;52.100;5.056;2023-06-04T01:37:12;102195.50;;;16.19;54.82
49813;BME280;35706;52.100;5.056;2023-06-04T01:38:13;102204.16;;;16.01;55.16
49813;BME280;35706;52.100;5.056;2023-06-04T01:39:14;102196.06;;;16.13;54.97
49813;BME280;35706;52.100;5.056;2023-06-04T01:40:14;102200.13;;;15.87;55.42
49813;BME280;35706;52.100;5.056;2023-06-04T01:41:15;102198.16;;;15.80;55.97
49813;BME280;35706;52.100;5.056;2023-06-04T01:42:16;102189.22;;;16.10;55.39
49813;BME280;35706;52.100;5.056;2023-06-04T01:43:19;102195.13;;;16.23;54.88
49813;BME280;35706;52.100;5.056;2023-06-04T01:44:19;102193.41;;;16.22;54.89
49813;BME280;35706;52.100;5.056;2023-06-04T01:45:21;102188.81;;;16.15;55.03
49813;BME280;35706;52.100;5.056;2023-06-04T01:46:22;102188.94;;;16.23;54.97
49813;BME280;35706;52.100;5.056;2023-06-04T01:47:22;102189.66;;;16.35;54.55
49813;BME280;35706;52.100;5.056;2023-06-04T01:48:22;102190.22;;;16.38;54.66
49813;BME280;35706;52.100;5.056;2023-06-04T01:49:23;102189.31;;;16.57;54.04
49813;BME280;35706;52.100;5.056;2023-06-04T01:50:23;102187.34;;;16.59;54.09
49813;BME280;35706;52.100;5.056;2023-06-04T01:51:24;102187.53;;;16.58;54.37
49813;BME280;35706;52.100;5.056;2023-06-04T01:52:24;102187.53;;;16.19;55.12
49813;BME280;35706;52.100;5.056;2023-06-04T01:53:24;102182.25;;;16.19;54.93
49813;BME280;35706;52.100;5.056;2023-06-04T01:54:25;102189.78;;;16.43;54.49
49813;BME280;35706;52.100;5.056;2023-06-04T01:55:26;102192.44;;;16.43;54.12
49813;BME280;35706;52.100;5.056;2023-06-04T01:56:28;102193.28;;;16.14;54.32
49813;BME280;35706;52.100;5.056;2023-06-04T01:57:29;102190.63;;;16.14;54.72
49813;BME280;35706;52.100;5.056;2023-06-04T01:58:29;102184.69;;;16.59;54.14
49813;BME280;35706;52.100;5.056;2023-06-04T01:59:32;102198.66;;;16.71;53.36
49813;BME280;35706;52.100;5.056;2023-06-04T02:00:33;102190.00;;;16.69;53.37
49813;BME280;35706;52.100;5.056;2023-06-04T02:01:33;102192.00;;;16.47;53.79
49813;BME280;35706;52.100;5.056;2023-06-04T02:02:35;102191.88;;;15.91;55.41
49813;BME280;35706;52.100;5.056;2023-06-04T02:03:36;102184.78;;;16.30;54.52
49813;BME280;35706;52.100;5.056;2023-06-04T02:04:41;102181.13;;;16.41;53.98
49813;BME280;35706;52.100;5.056;2023-06-04T02:05:45;102187.28;;;16.12;54.96
49813;BME280;35706;52.100;5.056;2023-06-04T02:06:46;102186.16;;;16.05;55.06
49813;BME280;35706;52.100;5.056;2023-06-04T02:07:49;102185.91;;;15.98;55.01
49813;BME280;35706;52.100;5.056;2023-06-04T02:08:49;102188.38;;;15.80;55.64
49813;BME280;35706;52.100;5.056;2023-06-04T02:09:49;102190.34;;;15.98;55.35
49813;BME280;35706;52.100;5.056;2023-06-04T02:10:50;102189.50;;;15.87;55.38
49813;BME280;35706;52.100;5.056;2023-06-04T02:11:50;102190.09;;;15.41;56.10
49813;BME280;35706;52.100;5.056;2023-06-04T02:12:59;102184.50;;;15.44;56.03
49813;BME280;35706;52.100;5.056;2023-06-04T02:13:59;102192.72;;;15.91;55.12
49813;BME280;35706;52.100;5.056;2023-06-04T02:15:00;102188.09;;;15.74;55.70
49813;BME280;35706;52.100;5.056;2023-06-04T02:16:00;102190.88;;;15.72;55.71
49813;BME280;35706;52.100;5.056;2023-06-04T02:17:00;102187.00;;;16.05;54.91
49813;BME280;35706;52.100;5.056;2023-06-04T02:18:15;102190.38;;;16.17;54.38
49813;BME280;35706;52.100;5.056;2023-06-04T02:19:21;102192.56;;;15.73;54.98
49813;BME280;35706;52.100;5.056;2023-06-04T02:20:21;102194.38;;;15.82;55.21
49813;BME280;35706;52.100;5.056;2023-06-04T02:21:21;102188.13;;;16.03;54.04
49813;BME280;35706;52.100;5.056;2023-06-04T02:22:22;102184.06;;;16.18;53.97
49813;BME280;35706;52.100;5.056;2023-06-04T02:23:22;102173.28;;;16.29;54.10
49813;BME280;35706;52.100;5.056;2023-06-04T02:24:22;102185.03;;;16.37;53.31
49813;BME280;35706;52.100;5.056;2023-06-04T02:25:23;102188.53;;;16.47;53.50
49813;BME280;35706;52.100;5.056;2023-06-04T02:26:23;102191.47;;;16.05;54.00
49813;BME280;35706;52.100;5.056;2023-06-04T02:27:25;102190.06;;;16.11;54.26
49813;BME280;35706;52.100;5.056;2023-06-04T02:28:26;102186.56;;;16.10;53.59
49813;BME280;35706;52.100;5.056;2023-06-04T02:29:26;102177.09;;;16.17;53.78
49813;BME280;35706;52.100;5.056;2023-06-04T02:30:26;102189.66;;;15.86;53.87
49813;BME280;35706;52.100;5.056;2023-06-04T02:31:27;102184.41;;;15.65;54.81
49813;BME280;35706;52.100;5.056;2023-06-04T02:32:27;102188.41;;;15.90;54.78
49813;BME280;35706;52.100;5.056;2023-06-04T02:33:28;102185.88;;;16.08;53.67
49813;BME280;35706;52.100;5.056;2023-06-04T02:34:29;102186.44;;;15.92;54.02
49813;BME280;35706;52.100;5.056;2023-06-04T02:35:30;102177.66;;;15.41;55.14
49813;BME280;35706;52.100;5.056;2023-06-04T02:36:31;102183.47;;;15.76;55.11
49813;BME280;35706;52.100;5.056;2023-06-04T02:37:31;102185.31;;;15.85;54.22
49813;BME280;35706;52.100;5.056;2023-06-04T02:38:31;102181.69;;;16.05;53.66
49813;BME280;35706;52.100;5.056;2023-06-04T02:39:31;102181.00;;;16.33;53.27
49813;BME280;35706;52.100;5.056;2023-06-04T02:40:32;102187.00;;;16.15;53.00
49813;BME280;35706;52.100;5.056;2023-06-04T02:41:32;102181.84;;;16.23;53.32
49813;BME280;35706;52.100;5.056;2023-06-04T02:42:32;102181.69;;;16.35;52.73
49813;BME280;35706;52.100;5.056;2023-06-04T02:43:33;102191.06;;;16.10;53.12
49813;BME280;35706;52.100;5.056;2023-06-04T02:44:33;102193.25;;;15.85;53.66
49813;BME280;35706;52.100;5.056;2023-06-04T02:45:33;102193.97;;;15.77;54.11
49813;BME280;35706;52.100;5.056;2023-06-04T02:46:34;102192.72;;;15.81;53.94
49813;BME280;35706;52.100;5.056;2023-06-04T02:47:34;102188.97;;;16.13;53.68
49813;BME280;35706;52.100;5.056;2023-06-04T02:48:34;102189.50;;;16.17;52.99
49813;BME280;35706;52.100;5.056;2023-06-04T02:49:35;102187.13;;;16.33;52.57
49813;BME280;35706;52.100;5.056;2023-06-04T02:50:35;102185.59;;;16.40;52.76
49813;BME280;35706;52.100;5.056;2023-06-04T02:51:35;102192.88;;;16.38;52.30
49813;BME280;35706;52.100;5.056;2023-06-04T02:52:36;102190.06;;;16.20;52.75
49813;BME280;35706;52.100;5.056;2023-06-04T02:53:37;102191.06;;;16.19;52.84
49813;BME280;35706;52.100;5.056;2023-06-04T02:54:37;102191.88;;;16.29;52.84
49813;BME280;35706;52.100;5.056;2023-06-04T02:55:38;102187.97;;;16.43;52.20
49813;BME280;35706;52.100;5.056;2023-06-04T02:56:38;102195.22;;;16.12;52.67
49813;BME280;35706;52.100;5.056;2023-06-04T02:57:40;102196.06;;;16.03;53.25
49813;BME280;35706;52.100;5.056;2023-06-04T02:58:51;102190.75;;;16.13;53.12
49813;BME280;35706;52.100;5.056;2023-06-04T02:59:52;102189.69;;;15.55;54.25
49813;BME280;35706;52.100;5.056;2023-06-04T03:00:55;102188.03;;;15.54;54.53
49813;BME280;35706;52.100;5.056;2023-06-04T03:01:55;102187.47;;;15.60;54.15
49813;BME280;35706;52.100;5.056;2023-06-04T03:02:56;102178.91;;;15.37;54.52
49813;BME280;35706;52.100;5.056;2023-06-04T03:04:01;102193.09;;;15.26;55.15
49813;BME280;35706;52.100;5.056;2023-06-04T03:05:05;102188.97;;;15.53;54.64
49813;BME280;35706;52.100;5.056;2023-06-04T03:06:05;102184.72;;;15.72;53.81
49813;BME280;35706;52.100;5.056;2023-06-04T03:07:06;102185.75;;;15.90;53.32
49813;BME280;35706;52.100;5.056;2023-06-04T03:08:08;102185.81;;;15.69;53.40
49813;BME280;35706;52.100;5.056;2023-06-04T03:09:08;102180.69;;;15.27;54.49
49813;BME280;35706;52.100;5.056;2023-06-04T03:10:09;102183.56;;;15.55;53.90
49813;BME280;35706;52.100;5.056;2023-06-04T03:11:10;102190.47;;;15.36;54.11
49813;BME280;35706;52.100;5.056;2023-06-04T03:12:10;102179.94;;;15.56;54.33
49813;BME280;35706;52.100;5.056;2023-06-04T03:13:11;102187.63;;;15.18;54.45
49813;BME280;35706;52.100;5.056;2023-06-04T03:14:11;102189.91;;;15.33;54.72
49813;BME280;35706;52.100;5.056;2023-06-04T03:15:12;102182.72;;;15.64;53.86
49813;BME280;35706;52.100;5.056;2023-06-04T03:16:12;102186.38;;;15.63;53.52
49813;BME280;35706;52.100;5.056;2023-06-04T03:17:12;102181.56;;;15.37;53.93
49813;BME280;35706;52.100;5.056;2023-06-04T03:18:13;102185.56;;;15.22;54.00
49813;BME280;35706;52.100;5.056;2023-06-04T03:19:13;102187.31;;;15.52;53.79
49813;BME280;35706;52.100;5.056;2023-06-04T03:20:14;102190.69;;;15.14;54.57
49813;BME280;35706;52.100;5.056;2023-06-04T03:21:14;102182.44;;;15.47;54.13
49813;BME280;35706;52.100;5.056;2023-06-04T03:22:14;102186.69;;;15.29;54.27
49813;BME280;35706;52.100;5.056;2023-06-04T03:23:15;102179.94;;;15.56;53.77
49813;BME280;35706;52.100;5.056;2023-06-04T03:24:15;102181.66;;;15.76;53.50
49813;BME280;35706;52.100;5.056;2023-06-04T03:25:16;102182.66;;;15.75;53.44
49813;BME280;35706;52.100;5.056;2023-06-04T03:26:16;102181.56;;;15.87;52.85
49813;BME280;35706;52.100;5.056;2023-06-04T03:27:16;102185.19;;;15.96;52.70
49813;BME280;35706;52.100;5.056;2023-06-04T03:28:17;102184.31;;;15.96;52.89
49813;BME280;35706;52.100;5.056;2023-06-04T03:29:17;102180.84;;;15.76;52.30
49813;BME280;35706;52.100;5.056;2023-06-04T03:30:18;102186.81;;;15.27;54.20
49813;BME280;35706;52.100;5.056;2023-06-04T03:31:18;102184.97;;;15.59;53.46
49813;BME280;35706;52.100;5.056;2023-06-04T03:32:18;102186.69;;;15.29;53.53
49813;BME280;35706;52.100;5.056;2023-06-04T03:33:19;102189.22;;;15.31;53.85
49813;BME280;35706;52.100;5.056;2023-06-04T03:34:19;102183.50;;;15.35;53.74
49813;BME280;35706;52.100;5.056;2023-06-04T03:35:20;102189.44;;;15.18;54.49
49813;BME280;35706;52.100;5.056;2023-06-04T03:36:20;102180.31;;;15.51;53.14
49813;BME280;35706;52.100;5.056;2023-06-04T03:37:31;102182.56;;;15.46;53.40
49813;BME280;35706;52.100;5.056;2023-06-04T03:38:32;102185.66;;;15.61;53.20
49813;BME280;35706;52.100;5.056;2023-06-04T03:39:33;102189.16;;;15.21;53.73
49813;BME280;35706;52.100;5.056;2023-06-04T03:40:33;102194.88;;;15.26;53.91
49813;BME280;35706;52.100;5.056;2023-06-04T03:41:33;102183.81;;;15.42;53.10
49813;BME280;35706;52.100;5.056;2023-06-04T03:42:34;102190.09;;;15.41;53.18
49813;BME280;35706;52.100;5.056;2023-06-04T03:43:34;102189.03;;;15.22;53.57
49813;BME280;35706;52.100;5.056;2023-06-04T03:44:34;102184.22;;;15.06;54.01
49813;BME280;35706;52.100;5.056;2023-06-04T03:45:35;102185.97;;;15.27;54.01
49813;BME280;35706;52.100;5.056;2023-06-04T03:46:35;102186.69;;;15.29;53.49
49813;BME280;35706;52.100;5.056;2023-06-04T03:47:37;102188.25;;;15.41;53.65
49813;BME280;35706;52.100;5.056;2023-06-04T03:48:38;102182.81;;;15.43;53.29
49813;BME280;35706;52.100;5.056;2023-06-04T03:49:38;102186.09;;;15.25;53.48
49813;BME280;35706;52.100;5.056;2023-06-04T03:50:38;102183.50;;;15.45;53.69
49813;BME280;35706;52.100;5.056;2023-06-04T03:51:39;102181.28;;;15.40;53.37
49813;BME280;35706;52.100;5.056;2023-06-04T03:52:40;102184.88;;;15.30;53.74
49813;BME280;35706;52.100;5.056;2023-06-04T03:53:41;102192.09;;;15.18;53.86
49813;BME280;35706;52.100;5.056;2023-06-04T03:54:41;102189.22;;;15.00;54.63
49813;BME280;35706;52.100;5.056;2023-06-04T03:55:44;102188.22;;;15.32;54.06
49813;BME280;35706;52.100;5.056;2023-06-04T03:56:45;102184.44;;;14.94;54.19
49813;BME280;35706;52.100;5.056;2023-06-04T03:57:46;102188.22;;;15.22;53.54
49813;BME280;35706;52.100;5.056;2023-06-04T03:58:46;102182.97;;;15.01;54.27
49813;BME280;35706;52.100;5.056;2023-06-04T03:59:46;102187.56;;;15.39;53.90
49813;BME280;35706;52.100;5.056;2023-06-04T04:00:47;102185.44;;;15.33;53.61
49813;BME280;35706;52.100;5.056;2023-06-04T04:01:47;102192.16;;;15.06;54.16
49813;BME280;35706;52.100;5.056;2023-06-04T04:02:48;102189.19;;;14.90;55.18
49813;BME280;35706;52.100;5.056;2023-06-04T04:03:49;102185.91;;;15.07;54.23
49813;BME280;35706;52.100;5.056;2023-06-04T04:04:52;102191.56;;;15.34;53.80
49813;BME280;35706;52.100;5.056;2023-06-04T04:05:54;102188.16;;;15.53;53.14
49813;BME280;35706;52.100;5.056;2023-06-04T04:06:54;102191.97;;;14.98;54.34
49813;BME280;35706;52.100;5.056;2023-06-04T04:07:54;102195.34;;;15.31;53.88
49813;BME280;35706;52.100;5.056;2023-06-04T04:08:55;102191.03;;;15.40;53.61
49813;BME280;35706;52.100;5.056;2023-06-04T04:09:55;102185.78;;;15.59;52.78
49813;BME280;35706;52.100;5.056;2023-06-04T04:10:55;102185.25;;;15.65;52.94
49813;BME280;35706;52.100;5.056;2023-06-04T04:11:56;102196.75;;;15.45;53.42
49813;BME280;35706;52.100;5.056;2023-06-04T04:12:56;102198.00;;;15.31;53.44
49813;BME280;35706;52.100;5.056;2023-06-04T04:13:58;102191.16;;;14.98;54.31
49813;BME280;35706;52.100;5.056;2023-06-04T04:14:58;102192.25;;;14.95;54.85
49813;BME280;35706;52.100;5.056;2023-06-04T04:15:59;102191.44;;;14.95;55.00
49813;BME280;35706;52.100;5.056;2023-06-04T04:17:00;102184.97;;;14.88;55.15
49813;BME280;35706;52.100;5.056;2023-06-04T04:18:00;102193.41;;;15.02;54.93
49813;BME280;35706;52.100;5.056;2023-06-04T04:19:01;102193.66;;;15.30;54.15
49813;BME280;35706;52.100;5.056;2023-06-04T04:20:01;102194.28;;;15.43;54.08
49813;BME280;35706;52.100;5.056;2023-06-04T04:21:05;102190.56;;;15.25;54.54
49813;BME280;35706;52.100;5.056;2023-06-04T04:22:06;102201.22;;;15.44;54.27
49813;BME280;35706;52.100;5.056;2023-06-04T04:23:06;102196.25;;;15.61;53.98
49813;BME280;35706;52.100;5.056;2023-06-04T04:24:08;102192.75;;;15.41;53.92
49813;BME280;35706;52.100;5.056;2023-06-04T04:25:09;102191.50;;;15.55;53.62
49813;BME280;35706;52.100;5.056;2023-06-04T04:26:10;102192.28;;;15.36;54.51
49813;BME280;35706;52.100;5.056;2023-06-04T04:27:10;102197.22;;;15.19;54.71
49813;BME280;35706;52.100;5.056;2023-06-04T04:28:16;102196.16;;;15.32;54.77
49813;BME280;35706;52.100;5.056;2023-06-04T04:29:20;102191.22;;;15.07;55.42
49813;BME280;35706;52.100;5.056;2023-06-04T04:30:24;102193.03;;;15.07;55.67
49813;BME280;35706;52.100;5.056;2023-06-04T04:31:26;102192.69;;;15.31;55.16
49813;BME280;35706;52.100;5.056;2023-06-04T04:32:27;102196.72;;;15.25;55.25
49813;BME280;35706;52.100;5.056;2023-06-04T04:33:30;102187.03;;;15.45;55.07
49813;BME280;35706;52.100;5.056;2023-06-04T04:34:38;102188.59;;;15.58;54.92
49813;BME280;35706;52.100;5.056;2023-06-04T04:35:42;102189.44;;;15.58;54.49
49813;BME280;35706;52.100;5.056;2023-06-04T04:36:44;102192.78;;;15.70;54.29
49813;BME280;35706;52.100;5.056;2023-06-04T04:37:45;102191.50;;;15.14;55.53
49813;BME280;35706;52.100;5.056;2023-06-04T04:38:45;102194.34;;;15.22;56.06
49813;BME280;35706;52.100;5.056;2023-06-04T04:39:45;102192.28;;;15.36;55.23
49813;BME280;35706;52.100;5.056;2023-06-04T04:40:46;102191.91;;;15.60;55.19
49813;BME280;35706;52.100;5.056;2023-06-04T04:41:47;102199.22;;;15.27;55.57
49813;BME280;35706;52.100;5.056;2023-06-04T04:42:48;102191.09;;;15.50;55.40
49813;BME280;35706;52.100;5.056;2023-06-04T04:43:48;102188.19;;;15.62;54.83
49813;BME280;35706;52.100;5.056;2023-06-04T04:44:49;102187.25;;;15.73;54.84
49813;BME280;35706;52.100;5.056;2023-06-04T04:45:50;102188.53;;;15.38;55.80
49813;BME280;35706;52.100;5.056;2023-06-04T04:46:50;102202.34;;;15.42;55.73
49813;BME280;35706;52.100;5.056;2023-06-04T04:47:51;102198.00;;;15.31;55.78
49813;BME280;35706;52.100;5.056;2023-06-04T04:48:51;102195.44;;;15.60;55.86
49813;BME280;35706;52.100;5.056;2023-06-04T04:49:51;102197.63;;;15.45;55.61
49813;BME280;35706;52.100;5.056;2023-06-04T04:50:52;102187.59;;;15.59;55.29
49813;BME280;35706;52.100;5.056;2023-06-04T04:51:53;102193.03;;;15.47;55.94
49813;BME280;35706;52.100;5.056;2023-06-04T04:52:53;102196.88;;;15.74;55.08
49813;BME280;35706;52.100;5.056;2023-06-04T04:53:53;102197.31;;;15.89;55.06
49813;BME280;35706;52.100;5.056;2023-06-04T04:54:54;102197.47;;;15.97;54.59
49813;BME280;35706;52.100;5.056;2023-06-04T04:55:57;102196.34;;;15.90;54.98
49813;BME280;35706;52.100;5.056;2023-06-04T04:56:57;102196.06;;;15.93;54.81
49813;BME280;35706;52.100;5.056;2023-06-04T04:57:58;102192.28;;;15.86;54.92
49813;BME280;35706;52.100;5.056;2023-06-04T04:58:58;102198.03;;;16.01;55.06
49813;BME280;35706;52.100;5.056;2023-06-04T04:59:58;102190.34;;;15.98;55.10
49813;BME280;35706;52.100;5.056;2023-06-04T05:00:59;102191.59;;;15.94;55.10
49813;BME280;35706;52.100;5.056;2023-06-04T05:01:59;102194.03;;;15.66;56.08
49813;BME280;35706;52.100;5.056;2023-06-04T05:02:59;102191.19;;;15.88;55.61
49813;BME280;35706;52.100;5.056;2023-06-04T05:04:00;102193.81;;;15.79;55.90
49813;BME280;35706;52.100;5.056;2023-06-04T05:05:00;102188.91;;;15.74;55.84
49813;BME280;35706;52.100;5.056;2023-06-04T05:06:00;102201.78;;;15.38;56.42
49813;BME280;35706;52.100;5.056;2023-06-04T05:07:01;102201.47;;;15.72;55.80
49813;BME280;35706;52.100;5.056;2023-06-04T05:08:01;102197.59;;;15.86;55.85
49813;BME280;35706;52.100;5.056;2023-06-04T05:09:01;102202.44;;;15.71;56.02
49813;BME280;35706;52.100;5.056;2023-06-04T05:10:02;102200.13;;;15.87;55.76
49813;BME280;35706;52.100;5.056;2023-06-04T05:11:02;102199.16;;;15.98;56.01
49813;BME280;35706;52.100;5.056;2023-06-04T05:12:03;102196.75;;;15.95;55.37
49813;BME280;35706;52.100;5.056;2023-06-04T05:13:03;102196.38;;;15.59;56.76
49813;BME280;35706;52.100;5.056;2023-06-04T05:14:05;102196.69;;;15.56;57.05
49813;BME280;35706;52.100;5.056;2023-06-04T05:15:06;102206.09;;;15.39;57.64
49813;BME280;35706;52.100;5.056;2023-06-04T05:16:06;102197.78;;;15.54;57.37
49813;BME280;35706;52.100;5.056;2023-06-04T05:17:07;102198.09;;;15.60;57.65
49813;BME280;35706;52.100;5.056;2023-06-04T05:18:10;102198.38;;;15.67;57.00
49813;BME280;35706;52.100;5.056;2023-06-04T05:19:11;102198.50;;;15.65;57.37
49813;BME280;35706;52.100;5.056;2023-06-04T05:20:12;102196.13;;;15.62;57.46
49813;BME280;35706;52.100;5.056;2023-06-04T05:21:13;102201.50;;;15.82;57.04
49813;BME280;35706;52.100;5.056;2023-06-04T05:22:13;102196.84;;;15.64;57.58
49813;BME280;35706;52.100;5.056;2023-06-04T05:23:16;102197.56;;;15.76;57.31
49813;BME280;35706;52.100;5.056;2023-06-04T05:24:16;102200.31;;;15.65;57.56